Terminal Aerodrome Forecast
Issued by NWS Green Bay, WI

Home | Current Version | Previous Version | Graphics & Text | Print | Product List | Glossary On
Versions: 1 2 3 4 5 6 7 8 9 10 11 12 13 14 15 16 17 18
000
FTUS43 KGRB 272328
TAFGRB
TAF
KGRB 272328Z 2800/2824 03007KT 5SM BR SCT009 OVC060
      TEMPO 2800/2801 2SM -SHRA BKN009 OVC035
     FM280200 15005KT 4SM BR VCSH BKN020 OVC030
      TEMPO 2802/2806 2SM -SHRA BR OVC020
     FM280600 15005KT 3SM BR VCSH OVC015
     FM281500 18010G16KT P6SM VCSH BKN030=

USA.gov is the U.S. government's official web portal to all federal, state and local government web resources and services.